createdAt,value
2023-05-05T00:01:48.261Z,1005.63
2023-05-05T00:04:21.574Z,1005.63
2023-05-05T00:06:54.589Z,1005.61
2023-05-05T00:09:27.680Z,1005.60
2023-05-05T00:12:14.647Z,1005.60
2023-05-05T00:14:47.637Z,1005.60
2023-05-05T00:17:20.498Z,1005.62
2023-05-05T00:19:53.721Z,1005.62
2023-05-05T00:22:28.363Z,1005.63
2023-05-05T00:25:01.833Z,1005.63
2023-05-05T00:27:35.438Z,1005.62
2023-05-05T00:30:08.683Z,1005.61
2023-05-05T00:32:41.721Z,1005.61
2023-05-05T00:35:14.669Z,1005.62
2023-05-05T00:37:47.609Z,1005.63
2023-05-05T00:40:20.727Z,1005.63
2023-05-05T00:42:53.890Z,1005.62
2023-05-05T00:45:27.368Z,1005.60
2023-05-05T00:48:04.215Z,1005.58
2023-05-05T00:50:37.862Z,1005.55
2023-05-05T00:53:11.625Z,1005.54
2023-05-05T00:55:44.284Z,1005.53
2023-05-05T00:58:17.696Z,1005.54
2023-05-05T01:00:50.690Z,1005.54
2023-05-05T01:03:23.722Z,1005.52
2023-05-05T01:05:56.699Z,1005.49
2023-05-05T01:08:29.875Z,1005.45
2023-05-05T01:11:03.642Z,1005.41
2023-05-05T01:13:36.536Z,1005.37
2023-05-05T01:16:09.680Z,1005.31
2023-05-05T01:18:42.777Z,1005.28
2023-05-05T01:21:15.541Z,1005.32
2023-05-05T01:23:48.764Z,1005.31
2023-05-05T01:26:21.609Z,1005.29
2023-05-05T01:28:54.542Z,1005.28
2023-05-05T01:31:27.416Z,1005.29
2023-05-05T01:34:00.539Z,1005.29
2023-05-05T01:36:33.800Z,1005.28
2023-05-05T01:39:06.707Z,1005.28
2023-05-05T01:41:39.648Z,1005.29
2023-05-05T01:44:12.925Z,1005.31
2023-05-05T01:46:46.786Z,1005.33
2023-05-05T01:49:19.505Z,1005.35
2023-05-05T01:51:52.791Z,1005.36
2023-05-05T01:54:25.638Z,1005.39
2023-05-05T01:56:58.772Z,1005.42
2023-05-05T01:59:31.761Z,1005.44
2023-05-05T02:02:04.872Z,1005.45
2023-05-05T02:04:37.538Z,1005.46
2023-05-05T02:07:10.949Z,1005.48
2023-05-05T02:09:44.792Z,1005.49
2023-05-05T02:12:17.767Z,1005.51
2023-05-05T02:14:50.789Z,1005.53
2023-05-05T02:17:23.454Z,1005.55
2023-05-05T02:19:56.856Z,1005.56
2023-05-05T02:22:29.625Z,1005.57
2023-05-05T02:25:02.839Z,1005.58
2023-05-05T02:27:35.550Z,1005.58
2023-05-05T02:30:08.781Z,1005.59
2023-05-05T02:32:41.877Z,1005.62
2023-05-05T02:35:14.592Z,1005.62
2023-05-05T02:37:50.508Z,1005.64
2023-05-05T02:40:37.806Z,1005.67
2023-05-05T02:43:10.564Z,1005.69
2023-05-05T02:45:43.638Z,1005.71
2023-05-05T02:48:16.861Z,1005.73
2023-05-05T02:50:49.653Z,1005.72
2023-05-05T02:53:22.845Z,1005.72
2023-05-05T02:55:55.483Z,1005.72
2023-05-05T02:58:28.632Z,1005.73
2023-05-05T03:01:01.884Z,1005.73
2023-05-05T03:03:34.929Z,1005.74
2023-05-05T03:06:07.925Z,1005.75
2023-05-05T03:08:40.912Z,1005.77
2023-05-05T03:11:13.718Z,1005.78
2023-05-05T03:13:46.944Z,1005.78
2023-05-05T03:16:19.819Z,1005.79
2023-05-05T03:18:52.581Z,1005.81
2023-05-05T03:21:25.783Z,1005.83
2023-05-05T03:23:58.792Z,1005.83
2023-05-05T03:26:31.952Z,1005.83
2023-05-05T03:29:04.504Z,1005.83
2023-05-05T03:31:37.920Z,1005.81
2023-05-05T03:34:11.031Z,1005.80
2023-05-05T03:36:43.548Z,1005.80
2023-05-05T03:39:16.782Z,1005.80
2023-05-05T03:41:49.756Z,1005.79
2023-05-05T03:44:22.898Z,1005.79
2023-05-05T03:46:55.774Z,1005.82
2023-05-05T03:49:28.950Z,1005.84
2023-05-05T03:52:01.977Z,1005.87
2023-05-05T03:54:34.897Z,1005.89
2023-05-05T03:57:07.565Z,1005.93
2023-05-05T03:59:40.954Z,1005.94
2023-05-05T04:02:13.772Z,1005.94
2023-05-05T04:04:46.954Z,1005.96
2023-05-05T04:07:19.589Z,1005.98
2023-05-05T04:09:52.778Z,1005.99
2023-05-05T04:12:25.593Z,1006.00
2023-05-05T04:14:58.872Z,1006.00
2023-05-05T04:17:31.638Z,1006.00
2023-05-05T04:20:04.690Z,1006.00
2023-05-05T04:22:37.630Z,1006.00
2023-05-05T04:25:10.606Z,1006.00
2023-05-05T04:27:43.625Z,1006.00
2023-05-05T04:30:16.793Z,1006.02
2023-05-05T04:32:49.706Z,1006.03
2023-05-05T04:35:22.879Z,1006.05
2023-05-05T04:37:56.185Z,1006.09
2023-05-05T04:40:29.787Z,1006.11
2023-05-05T04:43:02.630Z,1006.13
2023-05-05T04:45:37.561Z,1006.16
2023-05-05T04:48:10.978Z,1006.17
2023-05-05T04:50:43.818Z,1006.18
2023-05-05T04:53:16.985Z,1006.19
2023-05-05T04:55:49.866Z,1006.21
2023-05-05T04:58:23.040Z,1006.25
2023-05-05T05:00:55.983Z,1006.25
2023-05-05T05:03:28.961Z,1006.25
2023-05-05T05:06:01.718Z,1006.25
2023-05-05T05:08:34.832Z,1006.25
2023-05-05T05:11:07.988Z,1006.27
2023-05-05T05:13:41.017Z,1006.31
2023-05-05T05:16:13.772Z,1006.33
2023-05-05T05:18:46.936Z,1006.35
2023-05-05T05:21:19.705Z,1006.38
2023-05-05T05:23:53.105Z,1006.41
2023-05-05T05:26:26.208Z,1006.42
2023-05-05T05:28:59.817Z,1006.45
2023-05-05T05:31:32.861Z,1006.48
2023-05-05T05:34:06.250Z,1006.52
2023-05-05T05:36:39.910Z,1006.53
2023-05-05T05:39:19.051Z,1006.54
2023-05-05T05:41:51.822Z,1006.56
2023-05-05T05:44:25.051Z,1006.56
2023-05-05T05:46:58.033Z,1006.56
2023-05-05T05:49:31.119Z,1006.56
2023-05-05T05:52:04.167Z,1006.58
2023-05-05T05:54:37.051Z,1006.60
2023-05-05T05:57:10.141Z,1006.61
2023-05-05T05:59:42.990Z,1006.64
2023-05-05T06:02:16.022Z,1006.67
2023-05-05T06:04:48.750Z,1006.68
2023-05-05T06:07:22.091Z,1006.70
2023-05-05T06:09:54.751Z,1006.72
2023-05-05T06:12:28.006Z,1006.75
2023-05-05T06:15:07.255Z,1006.76
2023-05-05T06:17:41.549Z,1006.79
2023-05-05T06:20:15.078Z,1006.81
2023-05-05T06:22:47.776Z,1006.83
2023-05-05T06:25:20.761Z,1006.86
2023-05-05T06:27:53.795Z,1006.87
2023-05-05T06:30:26.783Z,1006.88
2023-05-05T06:33:14.106Z,1006.88
2023-05-05T06:35:47.055Z,1006.89
2023-05-05T06:38:19.836Z,1006.89
2023-05-05T06:40:53.811Z,1006.88
2023-05-05T06:43:27.270Z,1006.88
2023-05-05T06:45:59.915Z,1006.88
2023-05-05T06:48:33.148Z,1006.86
2023-05-05T06:51:05.918Z,1006.85
2023-05-05T06:53:39.341Z,1006.84
2023-05-05T06:56:12.232Z,1006.84
2023-05-05T06:58:45.317Z,1006.84
2023-05-05T07:01:19.130Z,1006.85
2023-05-05T07:03:55.782Z,1006.85
2023-05-05T07:06:29.191Z,1006.87
2023-05-05T07:09:02.020Z,1006.88
2023-05-05T07:11:35.285Z,1006.89
2023-05-05T07:14:08.198Z,1006.89
2023-05-05T07:16:41.423Z,1006.89
2023-05-05T07:19:13.877Z,1006.91
2023-05-05T07:21:46.917Z,1006.92
2023-05-05T07:24:33.979Z,1006.94
2023-05-05T07:27:07.141Z,1006.94
2023-05-05T07:29:40.210Z,1006.96
2023-05-05T07:32:13.282Z,1006.96
2023-05-05T07:34:45.892Z,1006.97
2023-05-05T07:37:18.886Z,1006.98
2023-05-05T07:39:52.282Z,1006.98
2023-05-05T07:42:24.916Z,1006.97
2023-05-05T07:44:57.877Z,1006.96
2023-05-05T07:47:31.060Z,1006.97
2023-05-05T07:50:04.173Z,1006.98
2023-05-05T07:55:27.617Z,1006.99
2023-05-05T07:58:01.045Z,1006.99
2023-05-05T08:00:33.920Z,1006.99
2023-05-05T08:03:10.621Z,1006.99
2023-05-05T08:05:40.070Z,1006.99
2023-05-05T08:08:12.941Z,1006.98
2023-05-05T08:10:46.197Z,1006.96
2023-05-05T08:13:19.437Z,1006.95
2023-05-05T08:15:52.592Z,1006.94
2023-05-05T08:18:26.185Z,1006.94
2023-05-05T08:20:59.097Z,1006.94
2023-05-05T08:23:32.197Z,1006.95
2023-05-05T08:26:05.088Z,1006.96
2023-05-05T08:28:38.328Z,1006.94
2023-05-05T08:31:11.415Z,1006.95
2023-05-05T08:33:44.329Z,1006.95
2023-05-05T08:36:17.268Z,1006.93
2023-05-05T08:38:49.991Z,1006.91
2023-05-05T08:41:23.271Z,1006.88
2023-05-05T08:43:55.986Z,1006.87
2023-05-05T08:46:29.392Z,1006.85
2023-05-05T08:49:02.376Z,1006.84
2023-05-05T08:51:35.101Z,1006.81
2023-05-05T08:54:08.102Z,1006.80
2023-05-05T08:56:41.397Z,1006.80
2023-05-05T08:59:14.066Z,1006.79
2023-05-05T09:01:47.126Z,1006.77
2023-05-05T09:04:20.317Z,1006.77
2023-05-05T09:06:53.405Z,1006.76
2023-05-05T09:09:25.992Z,1006.75
2023-05-05T09:11:59.523Z,1006.74
2023-05-05T09:14:32.177Z,1006.74
2023-05-05T09:17:05.435Z,1006.72
2023-05-05T09:19:38.170Z,1006.71
2023-05-05T09:22:11.405Z,1006.70
2023-05-05T09:24:44.147Z,1006.69
2023-05-05T09:27:17.530Z,1006.67
2023-05-05T09:29:50.249Z,1006.66
2023-05-05T09:32:23.698Z,1006.66
2023-05-05T09:34:57.298Z,1006.64
2023-05-05T09:37:30.379Z,1006.62
2023-05-05T09:40:03.241Z,1006.60
2023-05-05T09:42:36.698Z,1006.58
2023-05-05T09:45:09.643Z,1006.54
2023-05-05T09:47:42.442Z,1006.52
2023-05-05T09:50:15.294Z,1006.49
2023-05-05T09:52:48.404Z,1006.47
2023-05-05T09:55:21.465Z,1006.45
2023-05-05T09:57:54.356Z,1006.41
2023-05-05T10:00:27.305Z,1006.39
2023-05-05T10:03:00.366Z,1006.37
2023-05-05T10:05:33.529Z,1006.36
2023-05-05T10:08:06.261Z,1006.35
2023-05-05T10:10:39.193Z,1006.37
2023-05-05T10:13:12.582Z,1006.35
2023-05-05T10:15:45.249Z,1006.34
2023-05-05T10:18:18.290Z,1006.33
2023-05-05T10:20:51.243Z,1006.34
2023-05-05T10:23:24.128Z,1006.34
2023-05-05T10:25:57.310Z,1006.32
2023-05-05T10:28:30.405Z,1006.32
2023-05-05T10:31:10.004Z,1006.31
2023-05-05T10:33:36.225Z,1006.30
2023-05-05T10:36:09.512Z,1006.29
2023-05-05T10:38:42.279Z,1006.29
2023-05-05T10:41:15.581Z,1006.29
2023-05-05T10:43:48.229Z,1006.28
2023-05-05T10:46:21.412Z,1006.26
2023-05-05T10:48:54.405Z,1006.26
2023-05-05T10:51:38.524Z,1006.25
2023-05-05T10:54:00.254Z,1006.24
2023-05-05T10:56:33.500Z,1006.21
2023-05-05T10:59:06.663Z,1006.20
2023-05-05T11:01:39.548Z,1006.18
2023-05-05T11:04:12.441Z,1006.16
2023-05-05T11:06:45.347Z,1006.14
2023-05-05T11:09:18.333Z,1006.13
2023-05-05T11:11:51.251Z,1006.12
2023-05-05T11:14:24.587Z,1006.09
2023-05-05T11:16:57.230Z,1006.05
2023-05-05T11:19:30.534Z,1006.01
2023-05-05T11:22:03.377Z,1005.98
2023-05-05T11:24:36.380Z,1005.94
2023-05-05T11:27:09.207Z,1005.93
2023-05-05T11:29:42.537Z,1005.91
2023-05-05T11:32:15.332Z,1005.89
2023-05-05T11:34:48.560Z,1005.87
2023-05-05T11:37:21.410Z,1005.85
2023-05-05T11:39:54.351Z,1005.82
2023-05-05T11:42:27.318Z,1005.78
2023-05-05T11:45:00.589Z,1005.75
2023-05-05T11:47:33.743Z,1005.72
2023-05-05T11:50:07.565Z,1005.71
2023-05-05T11:52:40.516Z,1005.68
2023-05-05T11:55:13.471Z,1005.68
2023-05-05T11:57:46.403Z,1005.67
2023-05-05T12:00:19.508Z,1005.64
2023-05-05T12:02:52.456Z,1005.62
2023-05-05T12:05:25.400Z,1005.59
2023-05-05T12:07:58.654Z,1005.57
2023-05-05T12:10:31.377Z,1005.55
2023-05-05T12:13:04.731Z,1005.53
2023-05-05T12:15:37.674Z,1005.50
2023-05-05T12:18:10.567Z,1005.50
2023-05-05T12:20:43.478Z,1005.48
2023-05-05T12:23:16.573Z,1005.46
2023-05-05T12:25:49.454Z,1005.43
2023-05-05T12:28:22.529Z,1005.41
2023-05-05T12:30:55.748Z,1005.40
2023-05-05T12:33:28.604Z,1005.39
2023-05-05T12:36:01.440Z,1005.38
2023-05-05T12:38:34.481Z,1005.38
2023-05-05T12:41:07.466Z,1005.35
2023-05-05T12:43:40.526Z,1005.32
2023-05-05T12:46:13.842Z,1005.30
2023-05-05T12:48:48.401Z,1005.29
2023-05-05T12:51:19.702Z,1005.27
2023-05-05T12:53:52.683Z,1005.25
2023-05-05T12:56:25.528Z,1005.19
2023-05-05T12:58:58.578Z,1005.18
2023-05-05T13:01:31.745Z,1005.17
2023-05-05T13:04:04.757Z,1005.14
2023-05-05T13:06:37.416Z,1005.11
2023-05-05T13:09:10.558Z,1005.06
2023-05-05T13:11:43.498Z,1005.03
2023-05-05T13:14:16.544Z,1005.00
2023-05-05T13:16:49.603Z,1004.96
2023-05-05T13:19:22.564Z,1004.91
2023-05-05T13:21:55.903Z,1004.86
2023-05-05T13:24:46.647Z,1004.82
2023-05-05T13:27:06.440Z,1004.79
2023-05-05T13:29:39.838Z,1004.76
2023-05-05T13:32:13.673Z,1004.74
2023-05-05T13:34:46.688Z,1004.71
2023-05-05T13:37:19.753Z,1004.69
2023-05-05T13:39:52.799Z,1004.67
2023-05-05T13:42:25.740Z,1004.65
2023-05-05T13:44:58.950Z,1004.63
2023-05-05T13:50:05.874Z,1004.62
2023-05-05T13:52:38.689Z,1004.60
2023-05-05T13:55:11.664Z,1004.57
2023-05-05T13:57:44.779Z,1004.55
2023-05-05T14:00:17.802Z,1004.56
2023-05-05T14:02:50.913Z,1004.54
2023-05-05T14:05:23.799Z,1004.54
2023-05-05T14:07:56.904Z,1004.52
2023-05-05T14:10:30.645Z,1004.50
2023-05-05T14:13:03.807Z,1004.51
2023-05-05T14:15:36.801Z,1004.49
2023-05-05T14:18:09.544Z,1004.47
2023-05-05T14:20:42.835Z,1004.44
2023-05-05T14:23:15.598Z,1004.42
2023-05-05T14:25:48.657Z,1004.41
2023-05-05T14:28:21.950Z,1004.41
2023-05-05T14:30:55.488Z,1004.41
2023-05-05T14:33:28.887Z,1004.40
2023-05-05T14:36:01.847Z,1004.38
2023-05-05T14:38:34.901Z,1004.39
2023-05-05T14:41:07.833Z,1004.40
2023-05-05T14:43:40.843Z,1004.43
2023-05-05T14:46:13.495Z,1004.46
2023-05-05T14:48:46.600Z,1004.49
2023-05-05T14:51:19.657Z,1004.50
2023-05-05T14:53:53.057Z,1004.48
2023-05-05T14:56:26.901Z,1004.47
2023-05-05T14:58:59.839Z,1004.46
2023-05-05T15:01:32.799Z,1004.44
2023-05-05T15:04:05.650Z,1004.43
2023-05-05T15:06:38.930Z,1004.43
2023-05-05T15:09:17.436Z,1004.44
2023-05-05T15:11:50.701Z,1004.46
2023-05-05T15:14:23.702Z,1004.48
2023-05-05T15:16:57.020Z,1004.52
2023-05-05T15:19:30.632Z,1004.56
2023-05-05T15:22:05.489Z,1004.61
2023-05-05T15:24:38.664Z,1004.67
2023-05-05T15:27:11.722Z,1004.71
2023-05-05T15:29:44.695Z,1004.75
2023-05-05T15:32:17.792Z,1004.78
2023-05-05T15:34:50.745Z,1004.82
2023-05-05T15:37:23.700Z,1004.87
2023-05-05T15:39:56.939Z,1004.92
2023-05-05T15:42:29.598Z,1004.95
2023-05-05T15:45:02.621Z,1004.96
2023-05-05T15:47:35.647Z,1004.97
2023-05-05T15:50:08.661Z,1005.01
2023-05-05T15:52:41.755Z,1005.04
2023-05-05T15:55:14.729Z,1005.06
2023-05-05T15:57:47.925Z,1005.08
2023-05-05T16:00:20.812Z,1005.11
2023-05-05T16:02:53.895Z,1005.15
2023-05-05T16:05:26.733Z,1005.18
2023-05-05T16:08:03.425Z,1005.22
2023-05-05T16:10:36.614Z,1005.27
2023-05-05T16:13:09.683Z,1005.31
2023-05-05T16:15:42.652Z,1005.38
2023-05-05T16:18:15.832Z,1005.44
2023-05-05T16:20:49.062Z,1005.48
2023-05-05T16:23:21.624Z,1005.48
2023-05-05T16:25:54.732Z,1005.49
2023-05-05T16:28:27.892Z,1005.47
2023-05-05T16:31:03.714Z,1005.45
2023-05-05T16:33:37.287Z,1005.43
2023-05-05T16:36:10.769Z,1005.41
2023-05-05T16:38:43.798Z,1005.37
2023-05-05T16:41:17.196Z,1005.35
2023-05-05T16:43:50.776Z,1005.31
2023-05-05T16:46:24.182Z,1005.31
2023-05-05T16:48:57.838Z,1005.32
2023-05-05T16:51:30.906Z,1005.32
2023-05-05T16:54:03.722Z,1005.33
2023-05-05T16:56:39.584Z,1005.34
2023-05-05T16:59:13.088Z,1005.35
2023-05-05T17:01:46.240Z,1005.37
2023-05-05T17:04:19.909Z,1005.35
2023-05-05T17:06:53.408Z,1005.36
2023-05-05T17:09:27.006Z,1005.37
2023-05-05T17:11:59.799Z,1005.38
2023-05-05T17:14:33.115Z,1005.37
2023-05-05T17:17:05.957Z,1005.37
2023-05-05T17:19:52.945Z,1005.38
2023-05-05T17:22:25.907Z,1005.38
2023-05-05T17:24:58.769Z,1005.39
2023-05-05T17:27:31.727Z,1005.38
2023-05-05T17:30:04.729Z,1005.39
2023-05-05T17:32:37.749Z,1005.41
2023-05-05T17:35:10.968Z,1005.41
2023-05-05T17:37:44.029Z,1005.41
2023-05-05T17:40:17.210Z,1005.41
2023-05-05T17:42:50.866Z,1005.41
2023-05-05T17:45:23.953Z,1005.40
2023-05-05T17:47:57.256Z,1005.41
2023-05-05T17:50:29.913Z,1005.40
2023-05-05T17:53:03.038Z,1005.40
2023-05-05T17:55:35.830Z,1005.42
2023-05-05T17:58:08.788Z,1005.43
2023-05-05T18:00:45.567Z,1005.43
2023-05-05T18:03:19.463Z,1005.44
2023-05-05T18:05:52.796Z,1005.44
2023-05-05T18:08:26.062Z,1005.43
2023-05-05T18:10:58.960Z,1005.45
2023-05-05T18:13:31.927Z,1005.48
2023-05-05T18:16:04.836Z,1005.51
2023-05-05T18:18:37.816Z,1005.54
2023-05-05T18:21:10.802Z,1005.58
2023-05-05T18:23:43.929Z,1005.60
2023-05-05T18:26:17.226Z,1005.62
2023-05-05T18:28:49.917Z,1005.64
2023-05-05T18:31:24.051Z,1005.66
2023-05-05T18:33:57.246Z,1005.66
2023-05-05T18:36:30.084Z,1005.67
2023-05-05T18:39:06.121Z,1005.67
2023-05-05T18:41:38.888Z,1005.69
2023-05-05T18:44:11.820Z,1005.73
2023-05-05T18:46:45.873Z,1005.76
2023-05-05T18:49:27.662Z,1005.78
2023-05-05T18:51:58.861Z,1005.79
2023-05-05T18:54:32.389Z,1005.81
2023-05-05T18:57:04.880Z,1005.83
2023-05-05T18:59:38.842Z,1005.85
2023-05-05T19:02:13.074Z,1005.88
2023-05-05T19:04:45.891Z,1005.91
2023-05-05T19:07:31.630Z,1005.92
2023-05-05T19:09:52.244Z,1005.95
2023-05-05T19:12:25.340Z,1005.97
2023-05-05T19:15:01.977Z,1005.99
2023-05-05T19:17:34.949Z,1006.02
2023-05-05T19:20:08.259Z,1006.06
2023-05-05T19:22:41.154Z,1006.08
2023-05-05T19:25:14.146Z,1006.09
2023-05-05T19:27:47.137Z,1006.10
2023-05-05T19:30:20.151Z,1006.11
2023-05-05T19:32:54.424Z,1006.14
2023-05-05T19:35:28.326Z,1006.17
2023-05-05T19:38:01.437Z,1006.18
2023-05-05T19:40:35.410Z,1006.19
2023-05-05T19:43:08.161Z,1006.19
2023-05-05T19:45:41.265Z,1006.20
2023-05-05T19:48:14.104Z,1006.20
2023-05-05T19:50:47.051Z,1006.20
2023-05-05T19:53:20.135Z,1006.20
2023-05-05T19:55:53.356Z,1006.21
2023-05-05T19:58:25.933Z,1006.23
2023-05-05T20:01:02.142Z,1006.25
2023-05-05T20:03:35.133Z,1006.26
2023-05-05T20:06:07.955Z,1006.27
2023-05-05T20:08:40.959Z,1006.30
2023-05-05T20:11:14.217Z,1006.32
2023-05-05T20:13:46.940Z,1006.32
2023-05-05T20:16:20.377Z,1006.31
2023-05-05T20:18:53.348Z,1006.32
2023-05-05T20:21:26.093Z,1006.32
2023-05-05T20:23:58.962Z,1006.33
2023-05-05T20:26:38.188Z,1006.34
2023-05-05T20:29:10.994Z,1006.36
2023-05-05T20:31:44.052Z,1006.40
2023-05-05T20:34:16.974Z,1006.41
2023-05-05T20:36:56.262Z,1006.42
2023-05-05T20:39:29.348Z,1006.42
2023-05-05T20:42:02.438Z,1006.41
2023-05-05T20:44:39.254Z,1006.42
2023-05-05T20:47:12.148Z,1006.41
2023-05-05T20:49:45.030Z,1006.43
2023-05-05T20:52:18.214Z,1006.43
2023-05-05T20:54:51.240Z,1006.43
2023-05-05T20:57:24.402Z,1006.44
2023-05-05T20:59:57.195Z,1006.46
2023-05-05T21:02:30.457Z,1006.47
2023-05-05T21:05:03.303Z,1006.49
2023-05-05T21:07:36.345Z,1006.50
2023-05-05T21:10:09.782Z,1006.53
2023-05-05T21:12:42.684Z,1006.53
2023-05-05T21:15:16.470Z,1006.55
2023-05-05T21:17:49.407Z,1006.57
2023-05-05T21:20:26.285Z,1006.58
2023-05-05T21:22:59.353Z,1006.57
2023-05-05T21:25:32.448Z,1006.56
2023-05-05T21:28:05.489Z,1006.55
2023-05-05T21:30:38.590Z,1006.54
2023-05-05T21:33:13.540Z,1006.53
2023-05-05T21:35:46.063Z,1006.52
2023-05-05T21:38:19.629Z,1006.53
2023-05-05T21:40:53.429Z,1006.52
2023-05-05T21:43:26.386Z,1006.52
2023-05-05T21:45:59.289Z,1006.52
2023-05-05T21:48:32.118Z,1006.52
2023-05-05T21:51:05.079Z,1006.50
2023-05-05T21:53:53.408Z,1006.48
2023-05-05T21:56:26.358Z,1006.48
2023-05-05T21:58:59.606Z,1006.48
2023-05-05T22:01:33.413Z,1006.47
2023-05-05T22:04:06.546Z,1006.48
2023-05-05T22:06:39.436Z,1006.49
2023-05-05T22:09:15.200Z,1006.50
2023-05-05T22:11:48.100Z,1006.50
2023-05-05T22:14:21.542Z,1006.50
2023-05-05T22:16:54.405Z,1006.51
2023-05-05T22:19:27.154Z,1006.52
2023-05-05T22:22:00.447Z,1006.55
2023-05-05T22:24:33.324Z,1006.56
2023-05-05T22:27:06.480Z,1006.59
2023-05-05T22:29:39.782Z,1006.60
2023-05-05T22:32:13.326Z,1006.60
2023-05-05T22:34:46.503Z,1006.59
2023-05-05T22:37:19.608Z,1006.61
2023-05-05T22:39:53.602Z,1006.63
2023-05-05T22:42:28.542Z,1006.64
2023-05-05T22:45:01.490Z,1006.64
2023-05-05T22:47:34.444Z,1006.64
2023-05-05T22:50:07.435Z,1006.65
2023-05-05T22:52:40.607Z,1006.66
2023-05-05T22:55:14.547Z,1006.66
2023-05-05T22:57:47.398Z,1006.66
2023-05-05T23:00:20.672Z,1006.66
2023-05-05T23:02:53.688Z,1006.65
2023-05-05T23:05:27.785Z,1006.65
2023-05-05T23:08:01.662Z,1006.66
2023-05-05T23:10:35.429Z,1006.66
2023-05-05T23:13:08.510Z,1006.67
2023-05-05T23:15:55.459Z,1006.69
2023-05-05T23:18:28.524Z,1006.71
2023-05-05T23:21:01.557Z,1006.71
2023-05-05T23:23:34.420Z,1006.71
2023-05-05T23:26:07.628Z,1006.69
2023-05-05T23:28:40.941Z,1006.67
2023-05-05T23:31:14.659Z,1006.66
2023-05-05T23:33:47.592Z,1006.66
2023-05-05T23:36:20.593Z,1006.65
2023-05-05T23:38:53.526Z,1006.64
2023-05-05T23:41:26.652Z,1006.65
2023-05-05T23:43:59.588Z,1006.66
2023-05-05T23:46:32.753Z,1006.66
2023-05-05T23:49:05.588Z,1006.65
2023-05-05T23:51:38.661Z,1006.65
2023-05-05T23:54:11.659Z,1006.63
2023-05-05T23:56:44.620Z,1006.61
2023-05-05T23:59:17.803Z,1006.58
